Aeroporto :
LOGIN :

Iscrizione | Disclaimer

   EN    FR    IT 

 










Sommario :    VFR   VFR Marginale   IFR   IFR Intensivo   IFR Molto Intensivo
Visibilità : 
Base nubi : 
>= 8 km
>= 3000ft
5 / 8 km
1000 / 3000 ft
1500m / 5 km
500 / 1000 ft
800 / 1500m
200 / 500 ft
< 800m
< 200 ft
Simboli :   Temporali  Nebbia  Neve Forte  Precipitazioni Forti  Vento > 20 kt
SIGMETs :   Varie  Temporali  Ghiacco  Turbolenza  Onda orograficha  Ceneri Vulcaniche







- Altitudine del aeroporto : 1910 ft
- Codice IATA : RDZ
- Carte del aeroporto


LFCR - Rodez

ULTIMO METAR :
  • 171830Z AUTO 26005KT 9999 OVC012 03/02 Q1017 TEMPO 3000 BR BKN003

METARs OBSOLETI :
  • 171800Z AUTO 30003KT 9999 BKN013 BKN024 OVC034 03/02 Q1016 TEMPO BKN020
  • 171730Z AUTO 31005KT 270V330 9999 BKN014 OVC020 04/02 Q1016 BECMG BKN006
  • 171700Z AUTO 27008KT 9999 BKN025 04/02 Q1016 BECMG BKN006
  • 171630Z AUTO 28008KT 9999 FEW025/// BKN092/// ///TCU 03/01 Q1016 BECMG BKN006
  • 171600Z AUTO 28009KT 9999 FEW019 SCT030 BKN037 04/02 Q1016 BECMG BKN006

TAF AMD TAF LFCR
Valido dal 17 a 18 ore il 18 a 18 ore UTC


171809Z 1718/1818 30008KT 9999 BKN013
BECMG 1719/1721 6000 BKN006
TEMPO 1720/1811 3000 BR BKN003
PROB40
TEMPO 1722/1810 1200 BCFG BKN001
BECMG 1812/1814 BKN012
Nessun NOTAM noto per questo aeroporto.



MetMap, La meteo Aeronautica in un colpo d'occhio ! - Copyright ORBIFLY Dicembre 2007 - Disclaimer

ORBIFLY MET'MAP TEAM :

Programmazione e sviluppo : Alexandra Zaïnal
Concezione e sviluppo : Baudouin d'Aumeries
Co-Programmazione e sviluppo : Marc-Olivier Méhu
Supporto tecnico e logistico : Manuel Goepfert
Aiuto per la traduzione : Arnaldo La Scala

Contatto : metmap@orbifly.com




FONTI E CREDITI :

   NOAA